createdAt,value
2023-05-06T00:00:43.530Z,9.59
2023-05-06T00:01:43.508Z,9.60
2023-05-06T00:02:43.576Z,9.62
2023-05-06T00:03:43.783Z,9.62
2023-05-06T00:04:43.578Z,9.63
2023-05-06T00:05:43.508Z,9.68
2023-05-06T00:06:43.468Z,9.70
2023-05-06T00:07:43.455Z,9.71
2023-05-06T00:08:43.453Z,9.71
2023-05-06T00:09:43.429Z,9.70
2023-05-06T00:10:43.447Z,9.70
2023-05-06T00:11:43.404Z,9.71
2023-05-06T00:12:43.421Z,9.71
2023-05-06T00:13:43.390Z,9.74
2023-05-06T00:14:43.374Z,9.74
2023-05-06T00:15:43.363Z,9.75
2023-05-06T00:16:43.381Z,9.74
2023-05-06T00:17:43.414Z,9.71
2023-05-06T00:18:43.345Z,9.73
2023-05-06T00:19:43.325Z,9.71
2023-05-06T00:20:43.311Z,9.70
2023-05-06T00:21:43.298Z,9.68
2023-05-06T00:22:43.295Z,9.67
2023-05-06T00:23:43.273Z,9.68
2023-05-06T00:24:43.264Z,9.68
2023-05-06T00:25:43.253Z,9.67
2023-05-06T00:26:43.245Z,9.70
2023-05-06T00:27:43.230Z,9.68
2023-05-06T00:28:43.233Z,9.70
2023-05-06T00:29:43.205Z,9.71
2023-05-06T00:30:43.208Z,9.71
2023-05-06T00:31:43.209Z,9.73
2023-05-06T00:32:43.240Z,9.70
2023-05-06T00:33:43.163Z,9.70
2023-05-06T00:34:43.162Z,9.70
2023-05-06T00:35:43.147Z,9.70
2023-05-06T00:36:43.154Z,9.67
2023-05-06T00:37:43.123Z,9.67
2023-05-06T00:38:43.111Z,9.65
2023-05-06T00:39:43.100Z,9.62
2023-05-06T00:40:43.080Z,9.60
2023-05-06T00:41:43.093Z,9.59
2023-05-06T00:42:43.064Z,9.56
2023-05-06T00:43:43.079Z,9.53
2023-05-06T00:44:43.052Z,9.52
2023-05-06T00:45:43.073Z,9.49
2023-05-06T00:46:43.029Z,9.48
2023-05-06T00:47:43.049Z,9.45
2023-05-06T00:48:43.008Z,9.42
2023-05-06T00:49:43.028Z,9.42
2023-05-06T00:50:42.982Z,9.42
2023-05-06T00:51:42.972Z,9.44
2023-05-06T00:52:42.959Z,9.42
2023-05-06T00:53:42.942Z,9.45
2023-05-06T00:54:42.928Z,9.45
2023-05-06T00:55:42.932Z,9.49
2023-05-06T00:56:42.907Z,9.52
2023-05-06T00:57:42.900Z,9.53
2023-05-06T00:58:42.888Z,9.56
2023-05-06T00:59:42.886Z,9.59
2023-05-06T01:00:42.876Z,9.60
2023-05-06T01:01:42.876Z,9.63
2023-05-06T01:02:47.424Z,9.65
2023-05-06T01:03:42.938Z,9.67
2023-05-06T01:04:42.877Z,9.68
2023-05-06T01:05:42.815Z,9.70
2023-05-06T01:06:42.797Z,9.68
2023-05-06T01:07:42.800Z,9.67
2023-05-06T01:08:42.788Z,9.60
2023-05-06T01:09:42.787Z,9.60
2023-05-06T01:10:42.753Z,9.60
2023-05-06T01:11:42.749Z,9.62
2023-05-06T01:12:42.769Z,9.62
2023-05-06T01:13:42.734Z,9.62
2023-05-06T01:14:42.717Z,9.62
2023-05-06T01:15:42.703Z,9.59
2023-05-06T01:16:42.717Z,9.60
2023-05-06T01:17:42.714Z,9.58
2023-05-06T01:18:42.678Z,9.55
2023-05-06T01:19:42.658Z,9.55
2023-05-06T01:20:42.653Z,9.58
2023-05-06T01:21:42.638Z,9.59
2023-05-06T01:22:42.631Z,9.60
2023-05-06T01:23:42.626Z,9.62
2023-05-06T01:24:42.621Z,9.63
2023-05-06T01:25:42.614Z,9.65
2023-05-06T01:26:42.579Z,9.65
2023-05-06T01:27:42.582Z,9.65
2023-05-06T01:28:42.570Z,9.67
2023-05-06T01:29:42.556Z,9.67
2023-05-06T01:30:42.550Z,9.68
2023-05-06T01:31:42.531Z,9.67
2023-05-06T01:32:42.565Z,9.63
2023-05-06T01:33:42.510Z,9.60
2023-05-06T01:34:42.504Z,9.62
2023-05-06T01:35:42.517Z,9.62
2023-05-06T01:36:42.480Z,9.59
2023-05-06T01:37:42.467Z,9.56
2023-05-06T01:38:42.457Z,9.55
2023-05-06T01:39:42.438Z,9.55
2023-05-06T01:40:42.431Z,9.53
2023-05-06T01:41:42.440Z,9.55
2023-05-06T01:42:42.420Z,9.58
2023-05-06T01:43:42.386Z,9.59
2023-05-06T01:44:42.447Z,9.63
2023-05-06T01:45:42.375Z,9.65
2023-05-06T01:46:42.516Z,9.65
2023-05-06T01:47:42.421Z,9.65
2023-05-06T01:48:42.414Z,9.68
2023-05-06T01:49:42.389Z,9.68
2023-05-06T01:50:42.316Z,9.67
2023-05-06T01:51:42.311Z,9.65
2023-05-06T01:52:42.300Z,9.63
2023-05-06T01:53:42.287Z,9.65
2023-05-06T01:54:42.288Z,9.60
2023-05-06T01:55:42.274Z,9.62
2023-05-06T01:56:42.258Z,9.53
2023-05-06T01:57:42.242Z,9.44
2023-05-06T01:58:42.231Z,9.41
2023-05-06T01:59:42.229Z,9.41
2023-05-06T02:00:42.225Z,9.41
2023-05-06T02:01:42.227Z,9.44
2023-05-06T02:02:42.252Z,9.44
2023-05-06T02:03:42.273Z,9.44
2023-05-06T02:04:42.177Z,9.44
2023-05-06T02:05:42.159Z,9.40
2023-05-06T02:06:42.173Z,9.35
2023-05-06T02:07:42.122Z,9.31
2023-05-06T02:08:42.117Z,9.24
2023-05-06T02:09:42.111Z,9.23
2023-05-06T02:10:42.114Z,9.19
2023-05-06T02:11:42.081Z,9.16
2023-05-06T02:12:42.111Z,9.15
2023-05-06T02:13:42.061Z,9.16
2023-05-06T02:14:42.063Z,9.17
2023-05-06T02:15:42.040Z,9.16
2023-05-06T02:16:42.030Z,9.16
2023-05-06T02:17:42.039Z,9.17
2023-05-06T02:18:42.007Z,9.19
2023-05-06T02:19:42.037Z,9.19
2023-05-06T02:20:41.983Z,9.22
2023-05-06T02:21:41.968Z,9.23
2023-05-06T02:22:41.998Z,9.22
2023-05-06T02:23:41.956Z,9.22
2023-05-06T02:24:41.951Z,9.23
2023-05-06T02:25:41.928Z,9.23
2023-05-06T02:26:42.038Z,9.23
2023-05-06T02:27:41.913Z,9.20
2023-05-06T02:28:41.909Z,9.16
2023-05-06T02:29:41.885Z,9.15
2023-05-06T02:30:41.880Z,9.12
2023-05-06T02:31:41.927Z,9.06
2023-05-06T02:32:41.882Z,9.04
2023-05-06T02:33:41.855Z,9.04
2023-05-06T02:34:41.836Z,9.03
2023-05-06T02:35:41.810Z,9.01
2023-05-06T02:36:41.806Z,9.00
2023-05-06T02:37:41.799Z,8.97
2023-05-06T02:38:41.810Z,8.91
2023-05-06T02:39:41.781Z,8.88
2023-05-06T02:40:41.765Z,8.88
2023-05-06T02:41:41.746Z,8.86
2023-05-06T02:42:41.793Z,8.82
2023-05-06T02:43:41.730Z,8.82
2023-05-06T02:44:41.731Z,8.78
2023-05-06T02:45:41.724Z,8.71
2023-05-06T02:46:41.697Z,8.70
2023-05-06T02:47:41.744Z,8.75
2023-05-06T02:48:41.670Z,8.73
2023-05-06T02:49:41.657Z,8.75
2023-05-06T02:50:41.649Z,8.78
2023-05-06T02:51:41.649Z,8.76
2023-05-06T02:52:41.638Z,8.75
2023-05-06T02:53:41.612Z,8.78
2023-05-06T02:54:41.612Z,8.80
2023-05-06T02:55:41.590Z,8.83
2023-05-06T02:56:41.596Z,8.83
2023-05-06T02:57:41.576Z,8.82
2023-05-06T02:58:41.580Z,8.82
2023-05-06T02:59:41.544Z,8.79
2023-05-06T03:00:41.544Z,8.80
2023-05-06T03:01:41.556Z,8.83
2023-05-06T03:02:41.553Z,8.80
2023-05-06T03:03:41.500Z,8.79
2023-05-06T03:04:41.503Z,8.79
2023-05-06T03:05:41.481Z,8.79
2023-05-06T03:06:41.488Z,8.83
2023-05-06T03:07:41.477Z,8.88
2023-05-06T03:08:41.462Z,8.93
2023-05-06T03:09:41.439Z,8.93
2023-05-06T03:10:41.434Z,8.88
2023-05-06T03:11:41.421Z,8.88
2023-05-06T03:12:41.425Z,8.83
2023-05-06T03:13:41.388Z,8.83
2023-05-06T03:14:41.398Z,8.83
2023-05-06T03:15:41.381Z,8.89
2023-05-06T03:16:41.425Z,8.91
2023-05-06T03:17:41.480Z,8.89
2023-05-06T03:18:41.345Z,8.91
2023-05-06T03:19:41.324Z,8.96
2023-05-06T03:20:41.327Z,8.97
2023-05-06T03:21:41.390Z,9.00
2023-05-06T03:22:41.307Z,9.03
2023-05-06T03:23:41.275Z,8.97
2023-05-06T03:24:41.280Z,8.97
2023-05-06T03:25:41.278Z,8.96
2023-05-06T03:26:41.256Z,8.97
2023-05-06T03:27:41.233Z,8.97
2023-05-06T03:28:41.229Z,8.98
2023-05-06T03:29:41.233Z,8.98
2023-05-06T03:30:41.204Z,9.00
2023-05-06T03:31:41.201Z,9.00
2023-05-06T03:32:41.210Z,9.01
2023-05-06T03:33:41.173Z,8.94
2023-05-06T03:34:41.180Z,8.91
2023-05-06T03:35:41.160Z,8.89
2023-05-06T03:36:41.135Z,8.88
2023-05-06T03:37:41.128Z,8.89
2023-05-06T03:38:41.122Z,8.88
2023-05-06T03:39:41.122Z,8.89
2023-05-06T03:40:41.087Z,8.94
2023-05-06T03:41:41.080Z,8.98
2023-05-06T03:42:41.087Z,9.03
2023-05-06T03:43:41.077Z,9.12
2023-05-06T03:44:41.047Z,9.10
2023-05-06T03:45:41.040Z,9.08
2023-05-06T03:46:41.092Z,9.03
2023-05-06T03:47:41.052Z,9.04
2023-05-06T03:48:41.010Z,9.04
2023-05-06T03:49:40.992Z,9.00
2023-05-06T03:50:40.991Z,8.98
2023-05-06T03:51:40.975Z,9.00
2023-05-06T03:52:40.965Z,9.01
2023-05-06T03:53:40.962Z,9.01
2023-05-06T03:54:40.934Z,9.01
2023-05-06T03:55:40.924Z,9.03
2023-05-06T03:56:40.919Z,9.03
2023-05-06T03:57:40.912Z,9.01
2023-05-06T03:58:40.903Z,9.01
2023-05-06T03:59:40.884Z,9.06
2023-05-06T04:00:40.863Z,9.13
2023-05-06T04:01:40.890Z,9.19
2023-05-06T04:02:41.033Z,9.22
2023-05-06T04:03:40.964Z,9.24
2023-05-06T04:04:40.821Z,9.24
2023-05-06T04:05:40.821Z,9.22
2023-05-06T04:06:40.800Z,9.23
2023-05-06T04:07:40.807Z,9.23
2023-05-06T04:08:40.788Z,9.23
2023-05-06T04:09:40.766Z,9.26
2023-05-06T04:10:40.757Z,9.32
2023-05-06T04:11:40.760Z,9.35
2023-05-06T04:12:40.867Z,9.40
2023-05-06T04:13:40.727Z,9.42
2023-05-06T04:14:40.716Z,9.49
2023-05-06T04:15:40.709Z,9.49
2023-05-06T04:16:40.749Z,9.52
2023-05-06T04:17:40.714Z,9.45
2023-05-06T04:18:40.672Z,9.44
2023-05-06T04:19:40.657Z,9.45
2023-05-06T04:20:40.649Z,9.50
2023-05-06T04:21:40.647Z,9.52
2023-05-06T04:22:40.620Z,9.53
2023-05-06T04:23:40.620Z,9.56
2023-05-06T04:24:40.595Z,9.58
2023-05-06T04:25:40.605Z,9.62
2023-05-06T04:26:40.610Z,9.67
2023-05-06T04:27:40.571Z,9.70
2023-05-06T04:28:40.549Z,9.68
2023-05-06T04:29:40.548Z,9.71
2023-05-06T04:30:40.544Z,9.73
2023-05-06T04:31:40.592Z,9.73
2023-05-06T04:32:40.544Z,9.75
2023-05-06T04:33:40.507Z,9.75
2023-05-06T04:34:40.486Z,9.78
2023-05-06T04:35:40.494Z,9.80
2023-05-06T04:36:40.800Z,9.83
2023-05-06T04:37:40.462Z,9.83
2023-05-06T04:38:40.445Z,9.81
2023-05-06T04:39:40.446Z,9.81
2023-05-06T04:40:40.446Z,9.78
2023-05-06T04:41:40.415Z,9.81
2023-05-06T04:42:40.408Z,9.80
2023-05-06T04:43:40.396Z,9.83
2023-05-06T04:44:40.385Z,9.86
2023-05-06T04:45:40.446Z,9.88
2023-05-06T04:46:40.360Z,9.92
2023-05-06T04:47:40.422Z,9.98
2023-05-06T04:48:40.365Z,10.04
2023-05-06T04:49:40.343Z,10.06
2023-05-06T04:50:40.332Z,10.06
2023-05-06T04:51:40.309Z,10.02
2023-05-06T04:52:40.331Z,10.01
2023-05-06T04:53:40.300Z,10.02
2023-05-06T04:54:40.334Z,10.04
2023-05-06T04:55:40.276Z,10.07
2023-05-06T04:56:40.264Z,10.11
2023-05-06T04:57:40.246Z,10.11
2023-05-06T04:58:40.247Z,10.16
2023-05-06T04:59:40.243Z,10.17
2023-05-06T05:00:40.220Z,10.16
2023-05-06T05:01:40.253Z,10.18
2023-05-06T05:02:40.298Z,10.24
2023-05-06T05:03:40.227Z,10.20
2023-05-06T05:04:40.161Z,10.18
2023-05-06T05:05:40.156Z,10.18
2023-05-06T05:06:40.139Z,10.20
2023-05-06T05:07:40.187Z,10.18
2023-05-06T05:08:40.118Z,10.17
2023-05-06T05:09:40.115Z,10.17
2023-05-06T05:10:40.094Z,10.20
2023-05-06T05:11:40.096Z,10.24
2023-05-06T05:12:40.126Z,10.24
2023-05-06T05:13:40.067Z,10.22
2023-05-06T05:14:40.131Z,10.18
2023-05-06T05:15:40.139Z,10.22
2023-05-06T05:16:40.125Z,10.18
2023-05-06T05:17:40.044Z,10.24
2023-05-06T05:18:40.011Z,10.28
2023-05-06T05:19:40.002Z,10.31
2023-05-06T05:20:39.988Z,10.35
2023-05-06T05:21:39.992Z,10.36
2023-05-06T05:22:39.964Z,10.32
2023-05-06T05:23:39.958Z,10.36
2023-05-06T05:24:39.941Z,10.43
2023-05-06T05:25:39.944Z,10.34
2023-05-06T05:26:39.932Z,10.32
2023-05-06T05:27:39.909Z,10.34
2023-05-06T05:28:39.902Z,10.29
2023-05-06T05:29:39.889Z,10.32
2023-05-06T05:30:39.873Z,10.36
2023-05-06T05:31:39.969Z,10.43
2023-05-06T05:32:39.901Z,10.47
2023-05-06T05:33:39.943Z,10.52
2023-05-06T05:34:39.830Z,10.54
2023-05-06T05:35:39.836Z,10.57
2023-05-06T05:36:39.823Z,10.58
2023-05-06T05:37:39.823Z,10.55
2023-05-06T05:38:39.792Z,10.58
2023-05-06T05:39:39.787Z,10.60
2023-05-06T05:40:39.775Z,10.60
2023-05-06T05:41:39.758Z,10.62
2023-05-06T05:42:39.740Z,10.62
2023-05-06T05:43:39.734Z,10.65
2023-05-06T05:44:39.730Z,10.69
2023-05-06T05:45:39.723Z,10.75
2023-05-06T05:46:39.728Z,10.73
2023-05-06T05:47:39.761Z,10.78
2023-05-06T05:48:39.754Z,10.86
2023-05-06T05:49:39.668Z,10.84
2023-05-06T05:50:39.672Z,10.80
2023-05-06T05:51:39.647Z,10.81
2023-05-06T05:52:39.665Z,10.80
2023-05-06T05:53:39.618Z,10.75
2023-05-06T05:54:39.633Z,10.75
2023-05-06T05:55:39.609Z,10.80
2023-05-06T05:56:39.595Z,10.76
2023-05-06T05:57:39.593Z,10.78
2023-05-06T05:58:39.590Z,10.83
2023-05-06T05:59:39.568Z,10.78
2023-05-06T06:00:39.548Z,10.66
2023-05-06T06:01:39.534Z,10.68
2023-05-06T06:02:39.661Z,10.73
2023-05-06T06:03:39.709Z,10.83
2023-05-06T06:04:39.587Z,10.93
2023-05-06T06:05:39.486Z,10.98
2023-05-06T06:06:39.475Z,10.94
2023-05-06T06:07:39.482Z,10.98
2023-05-06T06:08:39.453Z,11.01
2023-05-06T06:09:39.454Z,11.02
2023-05-06T06:10:39.434Z,11.02
2023-05-06T06:11:39.417Z,11.05
2023-05-06T06:12:39.425Z,10.98
2023-05-06T06:13:39.411Z,10.95
2023-05-06T06:14:39.439Z,11.03
2023-05-06T06:15:39.373Z,10.95
2023-05-06T06:16:39.435Z,10.99
2023-05-06T06:17:39.395Z,11.06
2023-05-06T06:18:39.365Z,11.13
2023-05-06T06:19:39.325Z,11.21
2023-05-06T06:20:39.333Z,11.23
2023-05-06T06:21:39.302Z,11.28
2023-05-06T06:22:39.306Z,11.36
2023-05-06T06:23:39.294Z,11.42
2023-05-06T06:24:39.280Z,11.28
2023-05-06T06:25:39.272Z,11.35
2023-05-06T06:26:39.255Z,11.42
2023-05-06T06:27:39.259Z,11.36
2023-05-06T06:28:39.243Z,11.31
2023-05-06T06:29:39.220Z,11.27
2023-05-06T06:30:39.210Z,11.28
2023-05-06T06:31:40.698Z,11.38
2023-05-06T06:32:39.200Z,11.44
2023-05-06T06:33:39.181Z,11.48
2023-05-06T06:34:39.159Z,11.53
2023-05-06T06:35:39.161Z,11.60
2023-05-06T06:36:39.136Z,11.56
2023-05-06T06:37:39.144Z,11.57
2023-05-06T06:38:39.117Z,11.60
2023-05-06T06:39:39.130Z,11.53
2023-05-06T06:40:39.109Z,11.41
2023-05-06T06:41:39.098Z,11.44
2023-05-06T06:42:39.083Z,11.51
2023-05-06T06:43:39.064Z,11.57
2023-05-06T06:44:39.055Z,11.63
2023-05-06T06:45:39.089Z,11.67
2023-05-06T06:46:39.043Z,11.69
2023-05-06T06:47:39.036Z,11.67
2023-05-06T06:48:39.007Z,11.67
2023-05-06T06:49:39.006Z,11.70
2023-05-06T06:50:38.994Z,11.72
2023-05-06T06:51:38.992Z,11.69
2023-05-06T06:52:38.961Z,11.75
2023-05-06T06:53:38.957Z,11.79
2023-05-06T06:54:38.944Z,11.81
2023-05-06T06:55:38.937Z,11.79
2023-05-06T06:56:38.931Z,11.81
2023-05-06T06:57:38.916Z,11.88
2023-05-06T06:58:38.890Z,11.87
2023-05-06T06:59:38.898Z,11.96
2023-05-06T07:00:38.896Z,11.98
2023-05-06T07:01:38.970Z,11.97
2023-05-06T07:02:38.887Z,12.00
2023-05-06T07:03:38.853Z,11.94
2023-05-06T07:04:39.029Z,11.81
2023-05-06T07:05:38.850Z,11.70
2023-05-06T07:06:38.832Z,11.64
2023-05-06T07:07:38.801Z,11.69
2023-05-06T07:08:38.816Z,11.70
2023-05-06T07:09:40.100Z,11.81
2023-05-06T07:10:38.789Z,11.87
2023-05-06T07:11:38.755Z,11.93
2023-05-06T07:12:38.831Z,12.03
2023-05-06T07:13:38.745Z,12.08
2023-05-06T07:14:38.733Z,12.16
2023-05-06T07:15:38.734Z,12.15
2023-05-06T07:16:38.724Z,12.19
2023-05-06T07:17:38.743Z,12.15
2023-05-06T07:18:38.673Z,12.19
2023-05-06T07:19:38.686Z,12.22
2023-05-06T07:20:38.664Z,12.29
2023-05-06T07:21:38.647Z,12.37
2023-05-06T07:22:38.631Z,12.43
2023-05-06T07:23:38.635Z,12.49
2023-05-06T07:24:38.618Z,12.41
2023-05-06T07:25:38.622Z,12.46
2023-05-06T07:26:38.608Z,12.51
2023-05-06T07:27:38.576Z,12.56
2023-05-06T07:28:38.576Z,12.62
2023-05-06T07:29:38.572Z,12.70
2023-05-06T07:30:38.574Z,12.74
2023-05-06T07:31:38.675Z,12.85
2023-05-06T07:32:38.592Z,12.80
2023-05-06T07:33:38.548Z,12.80
2023-05-06T07:34:38.547Z,12.84
2023-05-06T07:35:38.530Z,12.87
2023-05-06T07:36:40.028Z,12.89
2023-05-06T07:37:38.488Z,12.84
2023-05-06T07:38:38.465Z,12.85
2023-05-06T07:39:38.456Z,12.80
2023-05-06T07:40:38.433Z,12.84
2023-05-06T07:41:38.425Z,12.91
2023-05-06T07:42:38.767Z,12.92
2023-05-06T07:43:38.414Z,12.98
2023-05-06T07:44:38.392Z,13.10
2023-05-06T07:45:38.388Z,13.21
2023-05-06T07:46:38.540Z,13.35
2023-05-06T07:47:38.442Z,13.36
2023-05-06T07:48:38.356Z,13.29
2023-05-06T07:49:38.339Z,13.19
2023-05-06T07:50:38.324Z,13.19
2023-05-06T07:51:38.314Z,13.06
2023-05-06T07:52:38.312Z,12.99
2023-05-06T07:53:38.290Z,12.98
2023-05-06T07:54:38.276Z,13.07
2023-05-06T07:55:38.267Z,13.21
2023-05-06T07:56:38.255Z,13.29
2023-05-06T07:57:38.267Z,13.32
2023-05-06T07:58:38.244Z,13.27
2023-05-06T07:59:38.224Z,13.28
2023-05-06T08:00:38.210Z,13.50
2023-05-06T08:01:38.218Z,13.65
2023-05-06T08:02:38.287Z,13.72
2023-05-06T08:03:38.395Z,13.63
2023-05-06T08:04:38.193Z,13.72
2023-05-06T08:05:38.161Z,13.80
2023-05-06T08:06:38.158Z,13.93
2023-05-06T08:07:38.136Z,13.99
2023-05-06T08:08:38.122Z,14.09
2023-05-06T08:09:38.141Z,14.19
2023-05-06T08:10:38.097Z,14.20
2023-05-06T08:11:38.102Z,14.13
2023-05-06T08:12:38.300Z,14.06
2023-05-06T08:13:38.075Z,14.11
2023-05-06T08:14:38.062Z,14.16
2023-05-06T08:15:38.058Z,14.20
2023-05-06T08:16:38.114Z,14.05
2023-05-06T08:17:38.076Z,14.04
2023-05-06T08:18:38.009Z,14.11
2023-05-06T08:19:37.998Z,14.26
2023-05-06T08:20:38.001Z,14.31
2023-05-06T08:21:38.000Z,14.19
2023-05-06T08:22:37.967Z,14.24
2023-05-06T08:23:37.967Z,14.53
2023-05-06T08:24:37.947Z,14.57
2023-05-06T08:25:37.956Z,14.56
2023-05-06T08:26:37.928Z,14.56
2023-05-06T08:27:37.918Z,14.64
2023-05-06T08:28:37.907Z,14.66
2023-05-06T08:29:37.907Z,14.87
2023-05-06T08:30:37.896Z,15.03
2023-05-06T08:31:37.933Z,15.04
2023-05-06T08:32:37.894Z,15.07
2023-05-06T08:33:37.857Z,14.98
2023-05-06T08:34:37.851Z,14.87
2023-05-06T08:35:37.848Z,14.95
2023-05-06T08:36:37.827Z,14.87
2023-05-06T08:37:37.807Z,14.79
2023-05-06T08:38:37.794Z,14.57
2023-05-06T08:39:37.792Z,14.64
2023-05-06T08:40:37.771Z,14.79
2023-05-06T08:41:37.765Z,14.75
2023-05-06T08:42:37.749Z,14.64
2023-05-06T08:43:37.740Z,14.74
2023-05-06T08:44:37.736Z,14.56
2023-05-06T08:45:37.746Z,14.72
2023-05-06T08:46:37.701Z,14.79
2023-05-06T08:47:37.749Z,14.97
2023-05-06T08:48:37.692Z,15.04
2023-05-06T08:49:37.684Z,15.05
2023-05-06T08:50:37.664Z,15.15
2023-05-06T08:51:37.650Z,15.28
2023-05-06T08:52:37.639Z,15.59
2023-05-06T08:53:37.643Z,15.92
2023-05-06T08:54:37.613Z,15.95
2023-05-06T08:55:37.644Z,15.92
2023-05-06T08:56:37.612Z,16.07
2023-05-06T08:57:37.588Z,16.03
2023-05-06T08:58:37.578Z,16.01
2023-05-06T08:59:37.561Z,15.80
2023-05-06T09:00:37.545Z,15.41
2023-05-06T09:01:37.692Z,15.46
2023-05-06T09:02:38.390Z,15.71
2023-05-06T09:03:37.540Z,15.80
2023-05-06T09:04:37.501Z,15.98
2023-05-06T09:05:37.494Z,16.08
2023-05-06T09:06:37.515Z,16.01
2023-05-06T09:07:37.491Z,15.91
2023-05-06T09:08:37.462Z,15.73
2023-05-06T09:09:37.462Z,15.77
2023-05-06T09:10:37.440Z,15.77
2023-05-06T09:11:37.432Z,15.59
2023-05-06T09:12:37.433Z,15.53
2023-05-06T09:13:37.406Z,15.52
2023-05-06T09:14:37.387Z,15.62
2023-05-06T09:15:37.383Z,15.64
2023-05-06T09:16:37.408Z,15.53
2023-05-06T09:17:37.422Z,15.38
2023-05-06T09:18:37.354Z,15.44
2023-05-06T09:19:37.339Z,15.46
2023-05-06T09:20:37.324Z,15.58
2023-05-06T09:21:37.331Z,15.64
2023-05-06T09:22:37.304Z,15.55
2023-05-06T09:23:37.321Z,15.46
2023-05-06T09:24:37.281Z,15.41
2023-05-06T09:25:37.274Z,15.66
2023-05-06T09:26:37.265Z,15.81
2023-05-06T09:27:37.255Z,16.17
2023-05-06T09:28:37.244Z,16.41
2023-05-06T09:29:37.234Z,16.33
2023-05-06T09:30:37.222Z,16.25
2023-05-06T09:31:37.377Z,16.17
2023-05-06T09:32:40.050Z,16.01
2023-05-06T09:33:37.183Z,15.77
2023-05-06T09:34:37.178Z,15.73
2023-05-06T09:35:37.178Z,15.92
2023-05-06T09:36:37.151Z,16.08
2023-05-06T09:37:37.134Z,16.32
2023-05-06T09:38:37.132Z,16.45
2023-05-06T09:39:37.122Z,16.47
2023-05-06T09:40:37.115Z,16.33
2023-05-06T09:41:37.093Z,16.37
2023-05-06T09:42:37.085Z,16.44
2023-05-06T09:43:37.068Z,16.44
2023-05-06T09:44:37.078Z,16.30
2023-05-06T09:45:37.075Z,16.33
2023-05-06T09:46:37.093Z,16.34
2023-05-06T09:47:37.092Z,16.33
2023-05-06T09:48:37.017Z,16.32
2023-05-06T09:49:37.022Z,16.48
2023-05-06T09:50:36.997Z,16.48
2023-05-06T09:51:36.980Z,16.44
2023-05-06T09:52:36.988Z,16.48
2023-05-06T09:53:36.976Z,16.33
2023-05-06T09:54:36.979Z,16.22
2023-05-06T09:55:36.947Z,16.13
2023-05-06T09:56:36.985Z,15.95
2023-05-06T09:57:37.073Z,15.84
2023-05-06T09:58:36.983Z,16.03
2023-05-06T09:59:36.916Z,16.30
2023-05-06T10:00:36.893Z,16.44
2023-05-06T10:01:37.827Z,16.44
2023-05-06T10:02:37.082Z,16.41
2023-05-06T10:03:36.986Z,16.45
2023-05-06T10:04:37.090Z,16.33
2023-05-06T10:05:36.861Z,16.32
2023-05-06T10:06:36.936Z,16.36
2023-05-06T10:07:36.819Z,16.48
2023-05-06T10:08:36.798Z,16.65
2023-05-06T10:09:36.787Z,16.72
2023-05-06T10:10:36.769Z,16.70
2023-05-06T10:11:36.971Z,16.66
2023-05-06T10:12:36.804Z,16.65
2023-05-06T10:13:36.749Z,16.55
2023-05-06T10:14:36.725Z,16.33
2023-05-06T10:15:36.718Z,16.27
2023-05-06T10:16:36.897Z,16.44
2023-05-06T10:17:36.740Z,16.59
2023-05-06T10:18:36.705Z,16.77
2023-05-06T10:19:36.669Z,16.82
2023-05-06T10:20:36.667Z,16.82
2023-05-06T10:21:36.660Z,16.81
2023-05-06T10:22:36.661Z,16.80
2023-05-06T10:23:36.635Z,16.85
2023-05-06T10:24:36.614Z,16.98
2023-05-06T10:25:36.626Z,17.09
2023-05-06T10:26:36.590Z,17.10
2023-05-06T10:27:36.661Z,17.06
2023-05-06T10:28:36.567Z,16.98
2023-05-06T10:29:36.624Z,16.98
2023-05-06T10:30:36.547Z,16.87
2023-05-06T10:31:36.633Z,16.88
2023-05-06T10:32:36.596Z,16.95
2023-05-06T10:33:36.513Z,17.05
2023-05-06T10:34:36.493Z,17.18
2023-05-06T10:35:36.490Z,17.24
2023-05-06T10:36:36.488Z,17.32
2023-05-06T10:37:36.470Z,17.45
2023-05-06T10:38:36.451Z,17.45
2023-05-06T10:39:36.448Z,17.46
2023-05-06T10:40:36.439Z,17.54
2023-05-06T10:41:36.433Z,17.71
2023-05-06T10:42:36.404Z,17.81
2023-05-06T10:43:36.404Z,17.89
2023-05-06T10:44:36.382Z,17.94
2023-05-06T10:45:36.429Z,17.86
2023-05-06T10:46:36.370Z,17.84
2023-05-06T10:47:36.372Z,17.81
2023-05-06T10:48:36.341Z,17.81
2023-05-06T10:49:36.334Z,17.80
2023-05-06T10:50:36.334Z,17.86
2023-05-06T10:51:36.399Z,17.87
2023-05-06T10:52:36.289Z,17.68
2023-05-06T10:53:36.321Z,17.65
2023-05-06T10:54:36.268Z,17.73
2023-05-06T10:55:36.274Z,17.81
2023-05-06T10:56:36.299Z,17.83
2023-05-06T10:57:36.240Z,17.96
2023-05-06T10:58:36.231Z,18.10
2023-05-06T10:59:36.216Z,18.20
2023-05-06T11:00:36.206Z,18.28
2023-05-06T11:01:36.387Z,18.23
2023-05-06T11:02:36.248Z,18.20
2023-05-06T11:03:36.271Z,18.19
2023-05-06T11:04:36.173Z,18.25
2023-05-06T11:05:36.163Z,18.20
2023-05-06T11:06:36.138Z,18.19
2023-05-06T11:07:36.131Z,18.17
2023-05-06T11:08:36.114Z,18.17
2023-05-06T11:09:36.120Z,18.25
2023-05-06T11:10:36.094Z,18.32
2023-05-06T11:11:36.090Z,18.38
2023-05-06T11:12:36.128Z,18.35
2023-05-06T11:13:36.066Z,18.39
2023-05-06T11:14:36.104Z,18.49
2023-05-06T11:15:36.044Z,18.41
2023-05-06T11:16:38.162Z,18.32
2023-05-06T11:17:36.044Z,18.32
2023-05-06T11:18:36.018Z,18.41
2023-05-06T11:19:36.013Z,18.47
2023-05-06T11:20:35.983Z,18.59
2023-05-06T11:21:35.980Z,18.54
2023-05-06T11:22:35.967Z,18.49
2023-05-06T11:23:35.967Z,18.47
2023-05-06T11:24:35.941Z,18.44
2023-05-06T11:25:35.935Z,18.42
2023-05-06T11:26:35.919Z,18.35
2023-05-06T11:27:35.911Z,18.32
2023-05-06T11:28:35.906Z,18.34
2023-05-06T11:29:35.895Z,18.42
2023-05-06T11:30:35.873Z,18.44
2023-05-06T11:31:35.909Z,18.44
2023-05-06T11:32:35.873Z,18.49
2023-05-06T11:33:35.856Z,18.57
2023-05-06T11:34:35.831Z,18.60
2023-05-06T11:35:35.839Z,18.69
2023-05-06T11:36:35.809Z,18.68
2023-05-06T11:37:35.870Z,18.71
2023-05-06T11:38:35.788Z,18.66
2023-05-06T11:39:40.341Z,18.64
2023-05-06T11:40:35.769Z,18.68
2023-05-06T11:41:35.761Z,18.75
2023-05-06T11:42:35.754Z,18.72
2023-05-06T11:43:35.756Z,18.66
2023-05-06T11:44:35.762Z,18.60
2023-05-06T11:45:35.714Z,18.46
2023-05-06T11:46:35.728Z,18.51
2023-05-06T11:47:35.757Z,18.57
2023-05-06T11:48:35.680Z,18.65
2023-05-06T11:49:36.875Z,18.78
2023-05-06T11:50:35.662Z,18.89
2023-05-06T11:51:35.671Z,19.06
2023-05-06T11:52:35.635Z,19.24
2023-05-06T11:53:35.630Z,19.40
2023-05-06T11:54:35.638Z,19.46
2023-05-06T11:55:35.604Z,19.40
2023-05-06T11:56:35.608Z,19.30
2023-05-06T11:57:35.583Z,19.10
2023-05-06T11:58:35.588Z,18.91
2023-05-06T11:59:35.560Z,18.84
2023-05-06T12:00:35.557Z,18.86
2023-05-06T12:01:35.546Z,18.94
2023-05-06T12:02:35.624Z,18.99
2023-05-06T12:03:35.644Z,19.06
2023-05-06T12:04:35.580Z,19.12
2023-05-06T12:05:35.510Z,19.12
2023-05-06T12:06:35.498Z,19.16
2023-05-06T12:07:35.469Z,19.13
2023-05-06T12:08:35.464Z,19.10
2023-05-06T12:09:35.446Z,19.10
2023-05-06T12:10:35.440Z,19.10
2023-05-06T12:11:35.429Z,19.10
2023-05-06T12:12:35.436Z,19.20
2023-05-06T12:13:35.409Z,19.24
2023-05-06T12:14:35.416Z,19.30
2023-05-06T12:15:35.388Z,19.28
2023-05-06T12:16:35.427Z,19.38
2023-05-06T12:17:35.371Z,19.46
2023-05-06T12:18:35.349Z,19.47
2023-05-06T12:19:35.341Z,19.55
2023-05-06T12:20:35.336Z,19.58
2023-05-06T12:21:35.311Z,19.65
2023-05-06T12:22:35.296Z,19.79
2023-05-06T12:23:35.320Z,19.79
2023-05-06T12:24:35.285Z,19.75
2023-05-06T12:25:35.294Z,19.78
2023-05-06T12:26:35.258Z,19.79
2023-05-06T12:27:35.285Z,19.80
2023-05-06T12:28:35.259Z,19.78
2023-05-06T12:29:35.290Z,19.80
2023-05-06T12:30:35.214Z,19.86
2023-05-06T12:31:35.271Z,19.86
2023-05-06T12:32:35.220Z,19.97
2023-05-06T12:33:35.186Z,20.04
2023-05-06T12:34:35.172Z,20.00
2023-05-06T12:35:35.175Z,20.05
2023-05-06T12:36:35.148Z,20.10
2023-05-06T12:37:35.132Z,20.05
2023-05-06T12:38:35.138Z,20.00
2023-05-06T12:39:35.123Z,19.94
2023-05-06T12:40:35.132Z,19.76
2023-05-06T12:41:35.092Z,19.75
2023-05-06T12:42:35.082Z,19.79
2023-05-06T12:43:35.083Z,19.82
2023-05-06T12:44:35.099Z,19.89
2023-05-06T12:45:35.103Z,19.86
2023-05-06T12:46:35.066Z,19.85
2023-05-06T12:47:35.078Z,19.87
2023-05-06T12:48:35.042Z,19.87
2023-05-06T12:49:35.000Z,19.89
2023-05-06T12:50:34.998Z,19.86
2023-05-06T12:51:34.981Z,19.89
2023-05-06T12:52:34.992Z,19.90
2023-05-06T12:53:34.965Z,19.89
2023-05-06T12:54:34.956Z,19.90
2023-05-06T12:55:34.951Z,19.98
2023-05-06T12:56:34.935Z,20.04
2023-05-06T12:57:34.928Z,20.12
2023-05-06T12:58:34.909Z,20.19
2023-05-06T12:59:34.900Z,20.26
2023-05-06T13:00:34.891Z,20.23
2023-05-06T13:01:34.932Z,20.22